Pagrindinis puslapis
METAR-TAF:

METAR-TAF

Oro uostai :

Thoothukudi, Indija

platuma: 8-43-27N, ilguma: 78-01-33E, Aukštis: 39 m

Dabartinis oras

Ataskaita buvo paskelbta 4 valandos ir 23 minutes, ne 11:00 UTC
Vėjas 6 kt iš Šiaurės Rytų
Temperatūra 28°C
Drėgmė 79%
Slėgis 1007 hPa
Matomumas: 5000 m
Išsisklaidę debesys ne aukštis 1500 ft
Apsiniaukę ne aukštis 8000 ft

METAR: VOTK 171100Z 04006KT 5000 SCT015 OVC080 28/24 Q1007 TEMPO 4000 RA

Laikas: 20:53 (15:23 UTC)


TAF: trūkstamas

Orai ataskaitas ir orų prognozės (METAR, TAF).

turimą stotys yra geltonos ir raudonos taškus žemėlapyje.

Perkelti pele per norėdami pamatyti stoties vardą.

Tada spustelėkite, norėdami matyti oro stebėjimo ir prognozės.

Norėdami pakeisti žemėlapį: spustelėkite ant žalios mygtukų su juodo kryžiaus žemyn,; žalią mygtuką su brūkšneliu, jei norite nutolinti; arba žalių rodyklių gretimoms žemėlapius.


METAR-TAF: